Time;durP1;ratioP1;P1;durP2;ratioP2;P2;SDS_P1;SDS_P2;PMS_P1;PMS_P2;Temp;Humidity;BMP_temperature;BMP_pressure;BME280_temperature;BME280_humidity;BME280_pressure;Samples;Min_cycle;Max_cycle;Signal;HPM_P1;HPM_P2
2022/11/10 00:00:34;;;;;;;60.87;34.30;;;;;;;10.84;91.66;95523.78;5071709;28;20949;-74
2022/11/10 00:03:02;;;;;;;59.33;33.63;;;;;;;10.80;91.51;95515.31;5071687;28;20444;-74
2022/11/10 00:05:29;;;;;;;54.17;34.67;;;;;;;10.79;91.40;95515.44;5071658;28;20508;-74
2022/11/10 00:07:56;;;;;;;57.93;34.60;;;;;;;10.76;91.92;95515.66;5071480;28;20477;-74
2022/11/10 00:10:23;;;;;;;56.47;35.00;;;;;;;10.76;92.79;95515.66;5071545;28;20454;-74
2022/11/10 00:12:52;;;;;;;55.50;34.47;;;;;;;10.78;92.96;95505.88;5071645;28;20450;-75
2022/11/10 00:18:18;;;;;;;52.17;35.73;;;;;;;10.83;92.17;95512.44;5009694;28;20437;-74
2022/11/10 00:20:44;;;;;;;51.37;32.40;;;;;;;10.86;91.31;95511.38;5010765;28;20457;-73
2022/11/10 00:23:11;;;;;;;54.53;34.60;;;;;;;10.80;91.08;95515.31;5013236;28;20441;-73
2022/11/10 00:25:38;;;;;;;57.23;35.47;;;;;;;10.77;89.90;95509.47;5013183;28;20446;-76
2022/11/10 00:28:06;;;;;;;60.73;33.90;;;;;;;10.75;90.87;95514.00;5013105;28;20837;-74
2022/11/10 00:30:33;;;;;;;52.57;34.07;;;;;;;10.74;91.37;95510.53;4964165;28;20430;-73
2022/11/10 00:32:59;;;;;;;49.60;34.47;;;;;;;10.79;91.09;95515.44;5013044;28;20458;-73
2022/11/10 00:35:26;;;;;;;55.67;35.60;;;;;;;10.83;90.35;95515.06;5012884;28;20444;-73
2022/11/10 00:37:53;;;;;;;57.73;33.60;;;;;;;10.90;91.08;95512.81;5013034;28;20519;-74
2022/11/10 00:40:20;;;;;;;48.57;31.50;;;;;;;10.88;88.82;95514.72;5012938;28;21023;-73
2022/11/10 00:42:46;;;;;;;52.23;33.20;;;;;;;10.90;88.70;95518.06;5012822;28;20846;-74
2022/11/10 00:45:15;;;;;;;53.33;34.20;;;;;;;10.91;88.73;95516.28;5013146;28;20441;-76
2022/11/10 00:47:41;;;;;;;60.27;33.10;;;;;;;10.85;88.35;95515.78;4996116;28;20488;-76
2022/11/10 00:50:09;;;;;;;48.77;33.70;;;;;;;10.80;88.54;95503.97;5067007;28;20455;-76
2022/11/10 00:52:36;;;;;;;44.50;32.17;;;;;;;10.78;88.84;95509.34;5074918;28;20473;-76
2022/11/10 00:55:02;;;;;;;48.90;31.67;;;;;;;10.75;87.62;95503.50;5074879;28;20447;-76
2022/11/10 00:57:29;;;;;;;54.20;35.03;;;;;;;10.69;87.34;95498.69;5074623;28;20446;-75
2022/11/10 00:59:56;;;;;;;53.30;32.27;;;;;;;10.59;87.72;95500.34;5074664;28;20446;-76
2022/11/10 01:02:24;;;;;;;49.57;32.20;;;;;;;10.51;87.04;95500.91;5074701;28;20437;-75
2022/11/10 01:04:51;;;;;;;49.83;29.97;;;;;;;10.46;88.04;95493.41;5055758;28;20441;-75
2022/11/10 01:07:17;;;;;;;50.23;32.03;;;;;;;10.44;88.31;95497.94;5074870;28;20481;-75
2022/11/10 01:09:44;;;;;;;47.97;31.10;;;;;;;10.43;88.43;95501.50;5039213;28;20446;-75
2022/11/10 01:12:11;;;;;;;52.83;32.17;;;;;;;10.41;88.50;95500.78;5039284;28;20458;-75
2022/11/10 01:14:38;;;;;;;50.00;31.83;;;;;;;10.39;88.21;95496.56;5074535;28;20871;-75
2022/11/10 01:17:05;;;;;;;48.23;30.63;;;;;;;10.36;87.90;95492.38;5074181;28;20445;-75
2022/11/10 01:19:33;;;;;;;47.73;30.47;;;;;;;10.30;88.69;95492.00;5074406;28;20451;-75
2022/11/10 01:22:00;;;;;;;52.00;32.50;;;;;;;10.32;89.32;95485.69;5074447;28;20449;-75
2022/11/10 01:24:27;;;;;;;44.40;29.10;;;;;;;10.33;89.78;95487.38;5074198;28;20450;-76
2022/11/10 01:26:54;;;;;;;49.63;28.93;;;;;;;10.26;90.25;95480.91;5074478;28;20496;-75
2022/11/10 01:29:20;;;;;;;46.17;30.53;;;;;;;10.24;89.50;95491.53;5074232;28;20457;-75
2022/11/10 01:31:47;;;;;;;42.10;29.20;;;;;;;10.22;90.54;95490.81;5038569;28;20853;-76
2022/11/10 01:34:14;;;;;;;48.70;30.70;;;;;;;10.22;90.70;95489.97;5038909;28;20469;-75
2022/11/10 01:36:42;;;;;;;45.77;29.33;;;;;;;10.16;91.33;95480.75;5074045;28;20457;-75
2022/11/10 01:39:09;;;;;;;47.00;30.33;;;;;;;10.17;91.82;95484.19;5074224;28;20491;-75
2022/11/10 01:41:36;;;;;;;47.83;31.33;;;;;;;10.14;93.07;95487.88;5073809;28;20446;-75
2022/11/10 01:44:13;;;;;;;48.83;31.00;;;;;;;10.16;92.30;95490.41;5073760;28;20920;-75
2022/11/10 01:46:40;;;;;;;42.90;28.67;;;;;;;10.17;92.22;95481.56;5073693;28;20483;-75
2022/11/10 01:49:09;;;;;;;55.80;34.20;;;;;;;10.12;91.19;95488.91;5073877;28;20912;-75
2022/11/10 01:51:42;;;;;;;45.83;30.60;;;;;;;10.08;91.30;95485.69;5074008;28;20443;-76
2022/11/10 01:54:14;;;;;;;52.17;34.30;;;;;;;9.87;90.11;95482.88;5073561;28;21048;-75
2022/11/10 01:56:44;;;;;;;52.47;32.70;;;;;;;9.86;90.80;95486.44;5073485;28;20457;-74
2022/11/10 01:59:16;;;;;;;55.67;34.00;;;;;;;9.73;90.07;95485.63;5073451;28;20453;-75
2022/11/10 02:01:46;;;;;;;65.13;36.53;;;;;;;9.55;90.56;95487.81;5073678;28;20445;-75
2022/11/10 02:04:16;;;;;;;57.83;36.53;;;;;;;9.65;91.24;95490.59;5073589;28;20939;-75
2022/11/10 02:06:46;;;;;;;55.03;35.90;;;;;;;9.61;89.91;95491.75;5073166;28;20486;-75
2022/11/10 02:09:14;;;;;;;61.70;34.90;;;;;;;9.61;88.93;95487.34;5073242;28;20458;-75
2022/11/10 02:11:43;;;;;;;57.53;34.83;;;;;;;9.57;88.39;95488.53;5073471;28;20814;-75
2022/11/10 02:14:10;;;;;;;52.50;34.30;;;;;;;9.59;89.60;95496.28;5073450;28;20458;-75
2022/11/10 02:16:37;;;;;;;55.73;32.93;;;;;;;9.58;90.04;95489.38;5073451;28;20437;-75
2022/11/10 02:19:16;;;;;;;49.07;34.60;;;;;;;9.53;89.60;95491.44;5073526;28;20452;-75
2022/11/10 02:21:44;;;;;;;50.67;32.60;;;;;;;9.53;90.42;95491.44;5072967;28;20449;-75
2022/11/10 02:24:11;;;;;;;51.20;31.70;;;;;;;9.53;89.87;95491.44;5073103;28;20955;-75
2022/11/10 02:26:43;;;;;;;49.20;32.80;;;;;;;9.54;90.06;95494.00;5072978;28;20440;-76
2022/11/10 02:29:10;;;;;;;47.73;31.10;;;;;;;9.57;91.00;95496.38;5072968;28;20449;-77
2022/11/10 02:31:37;;;;;;;48.13;30.53;;;;;;;9.58;91.37;95505.09;5073161;28;20449;-76
2022/11/10 02:34:03;;;;;;;45.63;28.83;;;;;;;9.59;91.34;95493.66;5073389;28;20452;-75
2022/11/10 02:36:30;;;;;;;49.43;30.43;;;;;;;9.57;90.71;95501.63;5073316;28;20920;-75
2022/11/10 02:38:59;;;;;;;49.67;33.03;;;;;;;9.57;89.44;95500.78;5072799;28;20445;-75
2022/11/10 02:41:25;;;;;;;48.53;30.53;;;;;;;9.54;89.44;95507.09;5072933;28;20485;-76
2022/11/10 02:43:54;;;;;;;47.00;30.57;;;;;;;9.57;88.99;95512.09;5072209;28;20946;-75
2022/11/10 02:46:21;;;;;;;40.83;29.43;;;;;;;9.58;89.23;95510.31;5072685;28;20440;-75
2022/11/10 02:48:48;;;;;;;44.33;30.87;;;;;;;9.57;89.71;95509.50;5072333;28;20489;-76
2022/11/10 02:51:15;;;;;;;37.73;26.10;;;;;;;9.56;90.68;95513.06;5072810;28;20502;-75
2022/11/10 02:53:41;;;;;;;40.90;26.17;;;;;;;9.53;91.01;95512.41;5072509;28;20489;-75
2022/11/10 02:56:10;;;;;;;45.00;29.73;;;;;;;9.46;91.70;95511.19;5072759;28;20433;-75
2022/11/10 02:58:36;;;;;;;39.07;25.37;;;;;;;9.46;91.48;95512.00;5072439;28;20449;-75
2022/11/10 03:01:05;;;;;;;39.37;27.37;;;;;;;9.44;91.72;95513.06;5037226;28;20453;-75
2022/11/10 03:03:32;;;;;;;46.60;27.33;;;;;;;9.43;91.29;95516.63;5072627;28;20540;-75
2022/11/10 03:06:00;;;;;;;45.33;27.57;;;;;;;9.41;91.96;95518.53;5072519;28;20487;-75
2022/11/10 03:08:27;;;;;;;32.17;22.47;;;;;;;9.37;91.40;95519.69;5072110;28;20528;-75
2022/11/10 03:10:55;;;;;;;40.03;24.73;;;;;;;9.38;91.78;95523.97;5072106;28;20461;-75
2022/11/10 03:13:23;;;;;;;39.90;25.83;;;;;;;9.38;91.48;95519.56;5072076;28;20502;-76
2022/11/10 03:15:50;;;;;;;37.80;24.73;;;;;;;9.38;92.08;95518.75;5072052;28;20475;-75
2022/11/10 03:18:17;;;;;;;40.73;25.83;;;;;;;9.38;91.59;95518.75;5072364;28;20449;-75
2022/11/10 03:20:47;;;;;;;41.13;26.17;;;;;;;9.37;91.37;95517.91;5072227;28;20453;-75
2022/11/10 03:23:14;;;;;;;36.00;23.13;;;;;;;9.33;91.32;95526.94;5072411;28;20445;-75
2022/11/10 03:25:41;;;;;;;37.03;25.67;;;;;;;9.30;91.18;95520.13;5071863;28;20441;-75
2022/11/10 03:28:08;;;;;;;35.37;24.20;;;;;;;9.29;91.68;95521.06;5052906;28;20889;-75
2022/11/10 03:30:37;;;;;;;42.20;24.60;;;;;;;9.25;91.92;95523.97;5072221;28;20452;-75
2022/11/10 03:33:04;;;;;;;42.87;24.40;;;;;;;9.19;92.13;95522.63;5072177;28;20440;-75
2022/11/10 03:35:31;;;;;;;42.03;24.13;;;;;;;9.16;92.39;95520.22;5036496;28;20970;-75
2022/11/10 03:37:57;;;;;;;42.60;24.87;;;;;;;9.07;92.42;95526.09;5071973;28;20444;-75
2022/11/10 03:40:24;;;;;;;37.33;23.03;;;;;;;9.02;92.48;95528.22;5071954;28;20449;-75
2022/11/10 03:42:51;;;;;;;41.50;24.30;;;;;;;8.94;93.06;95530.50;5071608;28;20441;-75
2022/11/10 03:45:18;;;;;;;34.60;23.37;;;;;;;8.96;93.17;95523.38;5072101;28;20950;-76
2022/11/10 03:47:47;;;;;;;36.40;23.07;;;;;;;8.93;93.49;95524.41;5071831;28;20480;-75
2022/11/10 03:50:14;;;;;;;35.30;22.40;;;;;;;8.87;93.50;95526.63;5071817;28;20444;-75
2022/11/10 03:52:43;;;;;;;37.83;24.80;;;;;;;8.82;93.08;95526.09;5071734;28;20480;-75
2022/11/10 03:55:11;;;;;;;34.50;21.80;;;;;;;8.83;93.52;95527.78;5073565;28;20449;-74
2022/11/10 03:57:38;;;;;;;38.40;24.10;;;;;;;8.76;93.33;95535.22;5076033;28;20444;-74
2022/11/10 04:00:06;;;;;;;35.57;24.30;;;;;;;8.73;93.31;95526.72;5040455;28;20445;-74
2022/11/10 04:02:33;;;;;;;36.67;22.60;;;;;;;8.76;93.52;95531.75;5007962;28;20448;-75
2022/11/10 04:10:29;;;;;;;33.80;23.20;;;;;;;8.81;93.15;95537.50;5075610;28;20428;-74
2022/11/10 04:15:43;;;;;;;31.40;22.20;;;;;;;8.62;93.26;95530.88;5075539;28;20430;-75
2022/11/10 04:18:28;;;;;;;37.70;23.90;;;;;;;8.63;93.53;95537.78;5056502;28;20455;-75
2022/11/10 04:20:57;;;;;;;40.10;23.53;;;;;;;8.60;93.98;95535.38;5075872;28;20447;-74
2022/11/10 04:23:30;;;;;;;36.00;22.87;;;;;;;8.57;93.76;95538.19;5075479;28;20444;-75
2022/11/10 04:28:44;;;;;;;41.27;23.50;;;;;;;8.56;94.38;95536.53;5075135;28;20934;-74
2022/11/10 04:31:12;;;;;;;36.13;24.70;;;;;;;8.52;94.08;95540.28;5075252;28;20493;-75
2022/11/10 04:33:40;;;;;;;34.27;22.77;;;;;;;8.53;94.23;95552.44;5056318;28;20444;-75
2022/11/10 04:36:09;;;;;;;34.00;22.43;;;;;;;8.53;93.94;95544.59;5075258;28;20960;-74
2022/11/10 04:38:36;;;;;;;35.30;22.30;;;;;;;8.50;94.22;95547.41;5075345;28;20441;-74
2022/11/10 04:41:03;;;;;;;41.90;24.00;;;;;;;8.43;94.36;95546.13;5074914;28;20445;-74
2022/11/10 04:43:30;;;;;;;38.10;24.20;;;;;;;8.41;94.33;95553.25;5074744;28;20589;-75
2022/11/10 04:45:57;;;;;;;34.03;22.70;;;;;;;8.31;94.06;95547.72;5074835;28;20447;-75
2022/11/10 04:48:25;;;;;;;35.93;22.13;;;;;;;8.38;94.90;95543.84;5075194;28;20532;-74
2022/11/10 04:50:52;;;;;;;30.83;20.97;;;;;;;8.37;94.80;95546.53;5066917;28;20456;-75
2022/11/10 04:53:20;;;;;;;33.03;23.07;;;;;;;8.36;94.86;95544.84;5074925;28;20549;-75
2022/11/10 04:55:47;;;;;;;31.50;21.97;;;;;;;8.28;95.30;95547.09;5074715;28;20454;-75
2022/11/10 04:58:15;;;;;;;32.73;21.63;;;;;;;8.27;95.51;95553.25;5074820;28;20939;-75
2022/11/10 05:00:42;;;;;;;37.27;21.37;;;;;;;8.32;95.24;95552.03;5056322;28;20459;-75
2022/11/10 05:03:11;;;;;;;32.20;22.07;;;;;;;8.29;95.28;95559.22;5074787;28;20483;-75
2022/11/10 05:05:38;;;;;;;30.63;21.97;;;;;;;8.23;95.43;95554.41;5074577;28;20446;-74
2022/11/10 05:08:06;;;;;;;35.57;22.67;;;;;;;8.14;95.53;95544.56;5073988;28;20486;-76
2022/11/10 05:10:36;;;;;;;36.30;22.30;;;;;;;8.19;95.72;95548.53;5074527;28;20444;-74
2022/11/10 05:13:04;;;;;;;35.47;22.13;;;;;;;8.17;95.74;95552.19;5074707;28;20438;-74
2022/11/10 05:15:32;;;;;;;29.53;19.83;;;;;;;8.16;95.68;95553.13;5074916;28;20519;-75
2022/11/10 05:18:00;;;;;;;30.37;22.30;;;;;;;8.10;96.16;95558.75;5074627;28;20521;-74
2022/11/10 05:20:27;;;;;;;30.93;23.17;;;;;;;8.15;96.12;95557.53;5074249;28;20807;-74
2022/11/10 05:25:40;;;;;;;28.97;19.17;;;;;;;8.20;95.90;95563.28;5072902;28;20475;-75
2022/11/10 05:28:10;;;;;;;32.00;22.20;;;;;;;8.17;96.03;95565.25;5074838;28;20492;-74
2022/11/10 05:30:38;;;;;;;28.83;19.80;;;;;;;8.17;96.14;95560.03;5074943;28;20455;-75
2022/11/10 05:33:05;;;;;;;32.40;21.80;;;;;;;8.25;96.11;95579.50;5074492;28;20441;-74
2022/11/10 05:35:33;;;;;;;33.10;21.47;;;;;;;8.26;96.42;95575.97;5074652;28;20466;-75
2022/11/10 05:38:00;;;;;;;33.93;21.70;;;;;;;8.40;95.72;95582.97;5074613;28;20445;-75
2022/11/10 05:40:27;;;;;;;30.57;21.57;;;;;;;8.56;95.74;95570.53;5074668;28;20452;-75
2022/11/10 05:42:55;;;;;;;32.37;20.80;;;;;;;8.73;94.11;95579.06;5074621;28;20445;-75
2022/11/10 05:45:24;;;;;;;38.03;23.77;;;;;;;8.99;93.34;95580.78;5074589;28;20451;-75
2022/11/10 05:47:52;;;;;;;31.77;21.50;;;;;;;9.26;91.57;95585.91;5074438;28;20485;-74
2022/11/10 05:50:20;;;;;;;33.83;20.90;;;;;;;9.43;90.50;95589.97;5074390;28;20453;-75
2022/11/10 05:52:48;;;;;;;29.40;19.23;;;;;;;9.55;90.10;95586.53;5073545;28;20549;-76
2022/11/10 05:55:16;;;;;;;30.43;20.93;;;;;;;9.56;89.96;95591.66;5074134;28;20460;-75
2022/11/10 05:57:44;;;;;;;34.10;21.37;;;;;;;9.59;89.54;95599.31;5074006;28;20499;-76
2022/11/10 06:00:14;;;;;;;26.20;20.50;;;;;;;9.68;89.56;95594.34;5074309;28;20453;-75
2022/11/10 06:02:41;;;;;;;28.60;18.90;;;;;;;9.70;89.39;95598.53;5073927;28;20592;-76
2022/11/10 06:05:08;;;;;;;25.33;19.00;;;;;;;9.72;88.93;95608.91;5074156;28;20449;-75
2022/11/10 06:07:35;;;;;;;28.80;20.40;;;;;;;9.71;88.77;95599.38;5073852;28;20445;-75
2022/11/10 06:10:02;;;;;;;23.53;17.80;;;;;;;9.68;88.18;95604.84;5038259;28;20426;-76
2022/11/10 06:12:29;;;;;;;29.20;20.63;;;;;;;9.66;89.79;95602.31;5073619;28;20485;-76
2022/11/10 06:14:57;;;;;;;28.90;18.67;;;;;;;9.74;90.08;95607.03;5005613;28;20529;-77
2022/11/10 06:17:25;;;;;;;28.60;19.37;;;;;;;9.69;89.71;95607.34;5073438;28;20986;-76
2022/11/10 06:19:52;;;;;;;27.73;19.57;;;;;;;9.74;90.41;95612.25;5073214;28;20394;-76
2022/11/10 06:22:19;;;;;;;31.37;20.70;;;;;;;9.88;89.90;95612.16;5073804;28;20450;-76
2022/11/10 06:24:46;;;;;;;29.87;19.63;;;;;;;10.09;89.92;95615.84;5073894;28;20441;-76
2022/11/10 06:27:13;;;;;;;29.20;20.67;;;;;;;10.16;88.42;95621.53;5073912;28;20528;-76
2022/11/10 06:29:40;;;;;;;27.53;18.83;;;;;;;10.28;88.04;95636.41;5073263;28;20575;-76
2022/11/10 06:32:07;;;;;;;29.70;19.13;;;;;;;10.39;88.32;95631.19;5073288;28;20443;-75
2022/11/10 06:34:35;;;;;;;24.93;19.70;;;;;;;10.54;86.60;95634.53;5069034;28;20466;-77
2022/11/10 06:37:01;;;;;;;24.50;18.37;;;;;;;10.64;86.83;95642.56;5065073;28;20862;-76
2022/11/10 06:39:28;;;;;;;28.13;17.43;;;;;;;10.84;85.33;95649.81;5068880;28;20450;-76
2022/11/10 06:41:55;;;;;;;23.87;18.70;;;;;;;10.95;84.80;95652.47;5052792;28;20443;-76
2022/11/10 06:44:22;;;;;;;28.93;20.37;;;;;;;10.92;84.79;95660.56;5071266;28;20441;-77
2022/11/10 06:46:49;;;;;;;37.87;26.10;;;;;;;10.77;82.14;95661.72;5068623;28;20463;-78
2022/11/10 06:49:15;;;;;;;40.70;28.47;;;;;;;10.59;81.99;95669.13;5072939;28;20544;-76
2022/11/10 06:51:43;;;;;;;46.80;28.33;;;;;;;10.05;83.38;95668.63;5068560;28;20470;-76
2022/11/10 06:54:10;;;;;;;43.03;28.77;;;;;;;9.86;84.23;95658.59;5059820;28;20474;-75
2022/11/10 06:56:37;;;;;;;55.80;32.33;;;;;;;9.48;86.01;95669.09;5064426;28;20446;-76
2022/11/10 06:59:04;;;;;;;51.60;33.13;;;;;;;9.44;85.89;95668.44;5054958;28;20449;-76
2022/11/10 07:01:30;;;;;;;41.53;29.87;;;;;;;9.17;87.96;95668.53;5055823;28;20468;-76
2022/11/10 07:03:57;;;;;;;40.57;30.47;;;;;;;9.04;88.32;95672.91;5053758;28;20453;-76
2022/11/10 07:06:24;;;;;;;60.37;32.17;;;;;;;8.97;90.06;95671.66;5027791;28;20441;-75
2022/11/10 07:08:52;;;;;;;47.63;32.87;;;;;;;9.14;90.09;95673.97;5070343;28;20534;-76
2022/11/10 07:11:19;;;;;;;48.40;31.17;;;;;;;9.29;89.43;95670.34;5068271;28;20958;-76
2022/11/10 07:13:45;;;;;;;73.50;30.10;;;;;;;9.47;88.53;95664.78;5071954;28;20441;-76
2022/11/10 07:16:13;;;;;;;54.30;31.03;;;;;;;9.61;88.82;95667.31;5072410;28;21242;-76
2022/11/10 07:18:39;;;;;;;47.50;31.40;;;;;;;9.75;89.47;95671.59;5072627;28;20441;-76
2022/11/10 07:21:06;;;;;;;49.90;29.63;;;;;;;9.91;89.12;95670.44;5072400;28;20474;-76
2022/11/10 07:23:33;;;;;;;37.40;22.90;;;;;;;10.03;90.31;95665.28;5072345;28;20446;-75
2022/11/10 07:26:02;;;;;;;36.00;21.50;;;;;;;10.09;89.61;95673.53;5071806;28;20455;-76
2022/11/10 07:28:29;;;;;;;26.27;19.70;;;;;;;10.18;88.68;95672.06;5072359;28;20508;-75
2022/11/10 07:30:56;;;;;;;29.00;20.33;;;;;;;10.24;88.66;95672.50;5071651;28;20440;-76
2022/11/10 07:33:22;;;;;;;32.63;21.40;;;;;;;10.41;89.02;95675.72;5054024;28;20450;-75
2022/11/10 07:35:54;;;;;;;31.20;21.63;;;;;;;10.47;87.52;95676.13;5037414;28;20450;-75
2022/11/10 07:38:21;;;;;;;32.83;21.50;;;;;;;10.52;87.34;95686.28;5071893;28;20530;-76
2022/11/10 07:40:51;;;;;;;32.17;20.40;;;;;;;10.64;87.50;95687.16;5072236;28;20507;-75
2022/11/10 07:43:19;;;;;;;33.70;20.43;;;;;;;10.81;86.99;95681.53;5072385;28;20451;-76
2022/11/10 07:45:46;;;;;;;30.40;21.53;;;;;;;10.97;86.65;95682.06;5072814;28;20847;-77
2022/11/10 07:48:14;;;;;;;26.67;19.20;;;;;;;11.07;86.33;95680.47;5072673;28;20454;-77
2022/11/10 07:50:41;;;;;;;28.77;19.50;;;;;;;11.20;87.33;95680.38;5072165;28;20448;-77
2022/11/10 07:53:11;;;;;;;29.80;21.47;;;;;;;11.30;85.25;95675.28;5071965;28;20479;-76
2022/11/10 07:55:38;;;;;;;30.70;20.80;;;;;;;11.37;84.39;95684.38;5072103;28;20450;-76
2022/11/10 07:58:05;;;;;;;28.70;20.93;;;;;;;11.38;84.83;95676.38;5071006;28;20509;-76
2022/11/10 08:00:34;;;;;;;30.80;20.87;;;;;;;11.47;84.95;95674.84;5072230;28;20465;-76
2022/11/10 08:03:02;;;;;;;26.60;20.40;;;;;;;11.51;83.35;95681.53;5072169;28;20447;-76
2022/11/10 08:05:29;;;;;;;34.27;22.50;;;;;;;11.62;84.07;95673.69;5072223;28;20452;-76
2022/11/10 08:07:56;;;;;;;31.20;21.17;;;;;;;11.66;83.60;95674.28;5072367;28;20455;-76
2022/11/10 08:10:23;;;;;;;32.03;20.10;;;;;;;11.73;84.12;95675.50;5071733;28;20491;-76
2022/11/10 08:12:54;;;;;;;38.03;21.97;;;;;;;11.79;84.05;95667.16;5071900;28;20537;-76
2022/11/10 08:15:21;;;;;;;31.20;22.47;;;;;;;11.84;82.79;95677.31;5071654;28;20525;-76
2022/11/10 08:17:49;;;;;;;32.73;20.87;;;;;;;11.92;83.79;95680.22;5072231;28;20453;-76
2022/11/10 08:20:16;;;;;;;32.43;21.90;;;;;;;12.08;82.33;95673.63;5052954;28;20447;-76
2022/11/10 08:22:43;;;;;;;29.67;20.57;;;;;;;12.15;82.22;95676.63;5071725;28;20448;-76
2022/11/10 08:25:10;;;;;;;29.30;21.73;;;;;;;12.27;80.76;95675.66;5072310;28;20448;-76
2022/11/10 08:27:37;;;;;;;33.50;23.50;;;;;;;12.32;81.16;95676.13;5052750;28;20436;-76
2022/11/10 08:30:05;;;;;;;36.53;24.33;;;;;;;12.17;80.85;95685.25;5071888;28;20495;-76
2022/11/10 08:32:31;;;;;;;36.10;23.47;;;;;;;12.19;79.91;95688.59;5071752;28;20498;-76
2022/11/10 08:34:59;;;;;;;34.27;23.40;;;;;;;12.24;80.45;95682.94;5072091;28;20551;-76
2022/11/10 08:37:30;;;;;;;32.80;22.57;;;;;;;12.34;81.14;95690.00;5072255;28;20463;-76
2022/11/10 08:39:57;;;;;;;35.93;25.67;;;;;;;12.51;80.87;95687.84;5071917;28;20490;-76
2022/11/10 08:42:23;;;;;;;39.50;25.50;;;;;;;12.53;80.23;95686.75;5072867;28;20993;-76
2022/11/10 08:44:50;;;;;;;36.67;24.87;;;;;;;12.61;80.44;95689.59;5075132;28;20451;-75
2022/11/10 08:47:17;;;;;;;43.30;29.40;;;;;;;12.71;82.97;95682.63;5074742;28;20440;-76
2022/11/10 08:49:44;;;;;;;47.13;29.07;;;;;;;12.63;82.05;95686.84;5075112;28;20484;-76
2022/11/10 08:52:12;;;;;;;44.07;28.77;;;;;;;12.73;82.37;95687.78;5074828;28;20483;-77
2022/11/10 08:54:39;;;;;;;46.77;30.60;;;;;;;12.81;83.01;95695.06;5074852;28;20494;-77
2022/11/10 08:57:06;;;;;;;44.03;30.00;;;;;;;12.84;82.60;95687.75;5074963;28;20440;-76
2022/11/10 08:59:33;;;;;;;47.27;33.03;;;;;;;12.80;82.06;95686.34;5074463;28;20452;-76
2022/11/10 09:02:00;;;;;;;53.53;34.80;;;;;;;12.85;82.43;95694.69;5074442;28;20433;-76
2022/11/10 09:04:26;;;;;;;54.37;30.73;;;;;;;12.78;82.36;95690.06;5074852;28;20979;-76
2022/11/10 09:06:56;;;;;;;54.27;34.57;;;;;;;12.76;82.35;95687.53;5074615;28;20440;-76
2022/11/10 09:09:24;;;;;;;72.90;39.83;;;;;;;12.84;83.61;95693.03;5074505;28;20491;-76
2022/11/10 09:11:51;;;;;;;60.47;36.13;;;;;;;12.95;83.11;95686.88;5074336;28;20451;-76
2022/11/10 09:14:18;;;;;;;70.00;40.43;;;;;;;13.05;82.35;95686.97;5074167;28;20448;-76
2022/11/10 09:16:45;;;;;;;59.77;39.77;;;;;;;13.04;81.63;95699.31;5066399;28;20453;-76
2022/11/10 09:19:12;;;;;;;62.13;38.53;;;;;;;13.10;82.21;95687.44;5056526;28;20982;-77
2022/11/10 09:21:40;;;;;;;61.97;37.90;;;;;;;13.01;81.76;95687.22;5073615;28;20542;-76
2022/11/10 09:24:07;;;;;;;65.90;42.97;;;;;;;13.02;81.93;95694.16;5075029;28;20440;-76
2022/11/10 09:26:36;;;;;;;64.63;38.70;;;;;;;13.11;82.02;95691.75;5074226;28;20460;-76
2022/11/10 09:29:02;;;;;;;69.70;39.80;;;;;;;13.16;81.20;95689.56;5055748;28;20537;-76
2022/11/10 09:31:29;;;;;;;71.33;42.00;;;;;;;13.09;80.97;95683.97;5074429;28;20445;-76
2022/11/10 09:33:58;;;;;;;74.63;42.13;;;;;;;13.21;81.64;95684.78;5055687;28;20994;-76
2022/11/10 09:36:24;;;;;;;71.03;44.70;;;;;;;13.26;80.93;95685.22;5074622;28;21007;-76
2022/11/10 09:38:51;;;;;;;79.70;45.20;;;;;;;13.28;80.66;95678.03;5074559;28;20448;-76
2022/11/10 09:41:18;;;;;;;63.27;42.73;;;;;;;13.14;80.45;95680.94;5038579;28;20440;-76
2022/11/10 09:44:00;;;;;;;93.57;50.33;;;;;;;13.19;80.95;95679.63;5074234;28;20457;-76
2022/11/10 09:46:31;;;;;;;89.13;52.70;;;;;;;13.40;80.98;95671.75;5074441;28;20466;-76
2022/11/10 09:49:03;;;;;;;82.53;47.00;;;;;;;13.48;80.75;95660.56;5074408;28;20876;-76
2022/11/10 09:51:35;;;;;;;73.40;44.87;;;;;;;13.66;81.02;95666.94;5073809;28;20449;-75
2022/11/10 09:54:05;;;;;;;67.40;40.73;;;;;;;13.78;81.38;95665.03;5074327;28;20803;-76
2022/11/10 09:56:35;;;;;;;67.13;44.97;;;;;;;13.84;80.05;95665.34;5073815;28;20452;-76
2022/11/10 09:59:15;;;;;;;72.27;46.57;;;;;;;13.70;78.88;95663.06;5074077;28;20460;-76
2022/11/10 10:01:48;;;;;;;70.53;46.67;;;;;;;13.71;79.68;95666.53;5073613;28;20444;-76
2022/11/10 10:04:27;;;;;;;75.00;43.83;;;;;;;13.77;79.87;95664.19;5073702;28;20457;-76
2022/11/10 10:07:06;;;;;;;86.97;50.03;;;;;;;13.88;79.15;95661.50;5073353;28;20436;-76
2022/11/10 10:09:41;;;;;;;72.67;48.10;;;;;;;13.89;78.92;95664.97;5073911;28;20579;-76
2022/11/10 10:12:23;;;;;;;83.83;50.20;;;;;;;13.99;78.48;95665.84;5073502;28;20448;-76
2022/11/10 10:15:12;;;;;;;72.80;48.47;;;;;;;14.12;78.47;95666.44;5074001;28;20549;-77
2022/11/10 10:17:49;;;;;;;99.63;50.37;;;;;;;14.17;78.07;95666.91;5054857;28;20468;-76
2022/11/10 10:20:23;;;;;;;93.67;50.53;;;;;;;14.21;77.41;95659.56;5073784;28;20452;-76
2022/11/10 10:22:58;;;;;;;89.17;50.60;;;;;;;14.21;77.68;95660.41;5073483;28;20446;-77
2022/11/10 10:25:27;;;;;;;97.57;51.50;;;;;;;14.23;77.92;95663.72;5073348;28;20984;-76
2022/11/10 10:27:59;;;;;;;85.67;51.63;;;;;;;14.19;77.80;95648.28;5073553;28;20444;-76
2022/11/10 10:30:28;;;;;;;79.43;49.13;;;;;;;14.23;77.50;95662.91;5073368;28;20527;-77
2022/11/10 10:33:00;;;;;;;88.17;50.80;;;;;;;14.25;77.63;95659.16;5073692;28;20830;-76
2022/11/10 10:35:28;;;;;;;85.93;51.13;;;;;;;14.26;78.02;95649.44;5073075;28;20566;-76
2022/11/10 10:37:57;;;;;;;79.53;48.90;;;;;;;14.15;77.93;95652.97;5073294;28;20452;-76
2022/11/10 10:40:24;;;;;;;87.00;50.03;;;;;;;14.08;77.65;95646.56;5072642;28;20456;-77
2022/11/10 10:42:51;;;;;;;82.70;48.97;;;;;;;14.24;77.67;95654.00;5072666;28;20448;-77
2022/11/10 10:45:21;;;;;;;96.23;52.57;;;;;;;14.30;77.90;95650.00;5073031;28;20449;-76
2022/11/10 10:47:51;;;;;;;81.30;50.73;;;;;;;14.24;77.89;95652.19;5073199;28;20449;-76
2022/11/10 10:50:24;;;;;;;92.57;50.80;;;;;;;14.31;77.92;95652.50;5073094;28;20492;-76
2022/11/10 10:53:12;;;;;;;90.67;53.53;;;;;;;14.26;78.73;95650.25;5072800;28;20481;-75
2022/11/10 10:55:44;;;;;;;84.67;51.00;;;;;;;14.30;78.53;95644.72;5072966;28;20911;-76
2022/11/10 10:58:20;;;;;;;84.40;49.60;;;;;;;14.34;78.56;95646.94;5072911;28;20444;-78
2022/11/10 11:00:49;;;;;;;86.27;50.37;;;;;;;14.42;78.63;95640.97;5054395;28;20449;-77
2022/11/10 11:03:26;;;;;;;78.67;48.37;;;;;;;14.51;77.99;95635.78;5072789;28;20458;-77
2022/11/10 11:06:01;;;;;;;86.60;50.23;;;;;;;14.45;77.60;95632.81;5036848;28;20437;-77
2022/11/10 11:08:28;;;;;;;95.43;49.97;;;;;;;14.46;77.58;95639.81;5054203;28;20532;-77
2022/11/10 11:10:55;;;;;;;87.67;50.63;;;;;;;14.35;77.76;95631.94;5072759;28;20826;-77
2022/11/10 11:13:24;;;;;;;93.40;50.57;;;;;;;14.44;77.85;95625.88;5072747;28;20521;-77
2022/11/10 11:15:57;;;;;;;80.03;50.07;;;;;;;14.49;77.43;95629.78;5072700;28;20460;-77
2022/11/10 11:18:27;;;;;;;83.60;52.03;;;;;;;14.61;76.89;95622.59;5073040;28;20485;-76
2022/11/10 11:21:01;;;;;;;82.20;48.30;;;;;;;14.67;77.05;95616.75;5074968;28;20452;-77
2022/11/10 11:23:47;;;;;;;86.13;49.50;;;;;;;14.72;77.75;95618.97;5072574;28;20630;-77
2022/11/10 11:26:20;;;;;;;85.80;48.57;;;;;;;14.70;76.97;95611.19;5036583;28;20475;-76
2022/11/10 11:29:00;;;;;;;82.83;49.60;;;;;;;14.80;77.23;95617.34;5072391;28;20444;-77
2022/11/10 11:31:37;;;;;;;88.60;48.10;;;;;;;14.84;76.65;95608.16;5072195;28;20440;-77
2022/11/10 11:34:16;;;;;;;88.30;46.23;;;;;;;14.95;76.23;95612.44;5036905;28;20811;-77
2022/11/10 11:36:53;;;;;;;88.33;55.43;;;;;;;15.07;75.13;95602.59;5072718;28;20461;-77
2022/11/10 11:39:32;;;;;;;82.70;51.90;;;;;;;15.13;75.67;95602.03;5072427;28;21026;-77
2022/11/10 11:42:11;;;;;;;75.63;46.93;;;;;;;15.12;75.39;95601.19;5072154;28;20445;-77